Time;durP1;ratioP1;P1;durP2;ratioP2;P2;SDS_P1;SDS_P2;PMS_P1;PMS_P2;Temp;Humidity;BMP_temperature;BMP_pressure;BME280_temperature;BME280_humidity;BME280_pressure;Samples;Min_cycle;Max_cycle;Signal;HPM_P1;HPM_P2
2021/09/22 00:01:08;;;;;;;3.17;2.42;;;18.40;55.90;;;;;;4892943;29;20160;-80
2021/09/22 00:03:34;;;;;;;3.00;2.40;;;18.50;56.00;;;;;;4891672;29;20163;-80
2021/09/22 00:06:00;;;;;;;3.38;2.50;;;18.40;56.00;;;;;;4893102;29;20251;-81
2021/09/22 00:08:26;;;;;;;4.20;2.60;;;18.40;56.00;;;;;;4891963;29;20176;-80
2021/09/22 00:10:51;;;;;;;2.97;2.40;;;18.40;56.60;;;;;;4891821;29;20169;-80
2021/09/22 00:13:18;;;;;;;4.03;2.75;;;18.40;56.00;;;;;;4892011;29;20164;-79
2021/09/22 00:15:44;;;;;;;4.00;2.67;;;18.50;56.00;;;;;;4892813;29;20156;-80
2021/09/22 00:18:12;;;;;;;3.92;2.55;;;18.40;56.00;;;;;;4892837;29;20175;-80
2021/09/22 00:20:38;;;;;;;3.78;2.58;;;18.50;56.00;;;;;;4892738;29;20164;-80
2021/09/22 00:23:06;;;;;;;2.95;2.33;;;18.40;55.90;;;;;;4876226;29;20623;-80
2021/09/22 00:25:33;;;;;;;3.25;2.33;;;18.40;56.00;;;;;;4892302;29;20164;-79
2021/09/22 00:28:02;;;;;;;3.58;2.58;;;18.50;56.10;;;;;;4892523;29;20163;-80
2021/09/22 00:30:29;;;;;;;3.17;2.47;;;18.50;56.10;;;;;;4892280;29;20161;-80
2021/09/22 00:32:55;;;;;;;4.63;2.47;;;18.50;56.10;;;;;;4860840;29;20175;-80
2021/09/22 00:35:21;;;;;;;3.08;2.50;;;18.40;56.00;;;;;;4860821;29;20200;-80
2021/09/22 00:37:46;;;;;;;3.13;2.50;;;18.40;56.00;;;;;;4876332;29;20165;-80
2021/09/22 00:40:12;;;;;;;3.60;2.78;;;18.50;55.90;;;;;;4860935;29;20180;-80
2021/09/22 00:42:40;;;;;;;3.33;2.70;;;18.40;56.00;;;;;;4876350;29;20706;-80
2021/09/22 00:45:08;;;;;;;3.45;2.88;;;18.50;56.10;;;;;;4875714;29;20199;-80
2021/09/22 00:47:34;;;;;;;3.08;2.47;;;18.50;56.10;;;;;;4891915;29;20172;-80
2021/09/22 00:50:00;;;;;;;3.47;2.63;;;18.40;56.00;;;;;;4860717;29;20176;-80
2021/09/22 00:52:28;;;;;;;3.42;2.80;;;18.40;56.00;;;;;;4860768;29;20180;-80
2021/09/22 00:54:55;;;;;;;3.30;2.55;;;18.50;56.20;;;;;;4876349;29;20247;-80
2021/09/22 00:57:20;;;;;;;3.58;2.70;;;18.40;56.00;;;;;;4876457;29;20160;-80
2021/09/22 00:59:47;;;;;;;3.53;2.60;;;18.40;56.10;;;;;;4875991;29;20161;-80
2021/09/22 01:02:14;;;;;;;4.32;2.63;;;18.40;56.00;;;;;;4860416;29;20265;-80
2021/09/22 01:04:40;;;;;;;4.43;2.92;;;18.40;56.00;;;;;;4860132;29;20213;-80
2021/09/22 01:07:07;;;;;;;3.10;2.30;;;18.40;56.10;;;;;;4875580;29;20176;-80
2021/09/22 01:09:41;;;;;;;3.78;2.33;;;18.40;56.10;;;;;;4875874;29;20208;-80
2021/09/22 01:12:07;;;;;;;3.20;2.40;;;18.40;56.10;;;;;;4875937;29;20175;-80
2021/09/22 01:14:34;;;;;;;3.20;2.47;;;18.40;56.00;;;;;;4859812;29;20207;-80
2021/09/22 01:16:59;;;;;;;3.47;2.70;;;18.40;56.10;;;;;;4891746;29;20160;-80
2021/09/22 01:19:27;;;;;;;3.50;2.70;;;18.40;56.00;;;;;;4876202;29;20166;-80
2021/09/22 01:21:54;;;;;;;3.10;2.50;;;18.40;56.00;;;;;;4860966;29;20168;-79
2021/09/22 01:24:20;;;;;;;4.50;2.58;;;18.40;56.00;;;;;;4891937;29;20219;-79
2021/09/22 01:26:47;;;;;;;3.38;2.75;;;18.40;56.00;;;;;;4875302;29;20240;-79
2021/09/22 01:29:13;;;;;;;3.85;2.70;;;18.40;56.00;;;;;;4875169;29;20180;-79
2021/09/22 01:31:45;;;;;;;3.33;2.83;;;18.40;56.10;;;;;;4891271;29;20581;-79
2021/09/22 01:34:13;;;;;;;3.50;2.50;;;18.40;56.10;;;;;;4891732;29;20199;-80
2021/09/22 01:36:47;;;;;;;3.72;2.65;;;18.40;56.00;;;;;;4878434;29;20175;-79
2021/09/22 01:39:12;;;;;;;3.88;2.50;;;18.40;56.10;;;;;;4894584;29;20223;-79
2021/09/22 01:41:38;;;;;;;4.32;2.67;;;18.40;56.10;;;;;;4894915;29;20172;-79
2021/09/22 01:44:04;;;;;;;3.08;2.45;;;18.40;56.10;;;;;;4878482;29;20215;-79
2021/09/22 01:46:30;;;;;;;3.17;2.58;;;18.40;56.10;;;;;;4895708;29;20187;-79
2021/09/22 01:48:57;;;;;;;3.40;2.70;;;18.40;56.10;;;;;;4895777;29;20235;-80
2021/09/22 01:51:25;;;;;;;3.25;2.60;;;18.40;56.20;;;;;;4896153;29;20164;-79
2021/09/22 01:53:51;;;;;;;4.15;2.53;;;18.40;56.10;;;;;;4894627;29;20212;-79
2021/09/22 01:56:17;;;;;;;3.50;2.63;;;18.40;56.20;;;;;;4895431;29;20160;-79
2021/09/22 01:58:43;;;;;;;2.58;2.22;;;18.40;56.20;;;;;;4893961;29;20525;-79
2021/09/22 02:01:12;;;;;;;4.00;2.55;;;18.40;56.10;;;;;;4894566;29;20164;-79
2021/09/22 02:03:42;;;;;;;3.58;2.67;;;18.40;56.10;;;;;;4878514;29;20193;-79
2021/09/22 02:06:08;;;;;;;2.88;2.47;;;18.40;56.20;;;;;;4895603;29;20219;-79
2021/09/22 02:08:39;;;;;;;2.97;2.45;;;18.40;56.20;;;;;;4878390;29;20179;-79
2021/09/22 02:11:06;;;;;;;4.43;2.70;;;18.40;56.20;;;;;;4894729;29;20694;-79
2021/09/22 02:13:32;;;;;;;4.22;2.58;;;18.40;56.20;;;;;;4894887;29;20199;-79
2021/09/22 02:15:57;;;;;;;3.22;2.42;;;18.40;56.10;;;;;;4878867;29;20172;-79
2021/09/22 02:18:24;;;;;;;3.15;2.47;;;18.40;56.20;;;;;;4895368;29;20168;-79
2021/09/22 02:20:50;;;;;;;5.25;2.80;;;18.30;56.10;;;;;;4894343;29;20164;-79
2021/09/22 02:23:15;;;;;;;3.17;2.42;;;18.40;56.20;;;;;;4895062;29;20172;-79
2021/09/22 02:25:42;;;;;;;4.07;2.80;;;18.40;56.20;;;;;;4895149;29;20168;-79
2021/09/22 02:28:07;;;;;;;3.25;2.55;;;18.40;56.20;;;;;;4894561;29;20225;-79
2021/09/22 02:30:34;;;;;;;2.85;2.47;;;18.30;56.20;;;;;;4893516;29;20172;-79
2021/09/22 02:33:00;;;;;;;4.03;2.80;;;18.30;56.30;;;;;;4893985;29;20165;-79
2021/09/22 02:35:26;;;;;;;3.63;2.40;;;18.30;56.30;;;;;;4894156;29;20192;-79
2021/09/22 02:37:52;;;;;;;4.20;2.47;;;18.40;56.30;;;;;;4894630;29;20163;-79
2021/09/22 02:40:17;;;;;;;3.60;2.30;;;18.30;56.30;;;;;;4894505;29;20231;-79
2021/09/22 02:42:44;;;;;;;3.28;2.50;;;18.30;56.20;;;;;;4895102;29;20228;-79
2021/09/22 02:45:11;;;;;;;3.33;2.60;;;18.40;56.30;;;;;;4893960;29;20227;-79
2021/09/22 02:47:37;;;;;;;3.10;2.40;;;18.40;56.40;;;;;;4893018;29;20160;-79
2021/09/22 02:50:03;;;;;;;3.80;2.50;;;18.30;56.40;;;;;;4893364;29;20175;-79
2021/09/22 02:52:29;;;;;;;3.00;2.38;;;18.40;56.40;;;;;;4878044;29;20172;-79
2021/09/22 02:54:56;;;;;;;3.28;2.60;;;18.40;56.40;;;;;;4893419;29;20198;-79
2021/09/22 02:57:22;;;;;;;3.20;2.40;;;18.30;56.30;;;;;;4893569;29;20160;-79
2021/09/22 02:59:48;;;;;;;4.45;2.85;;;18.30;56.40;;;;;;4894505;29;20171;-79
2021/09/22 03:02:17;;;;;;;3.58;2.63;;;18.40;56.40;;;;;;4894160;29;20164;-79
2021/09/22 03:04:43;;;;;;;3.13;2.50;;;18.40;56.40;;;;;;4894435;29;20173;-79
2021/09/22 03:07:10;;;;;;;3.75;2.97;;;18.30;56.40;;;;;;4894883;29;20168;-79
2021/09/22 03:09:38;;;;;;;3.00;2.40;;;18.40;56.40;;;;;;4894205;29;20167;-79
2021/09/22 03:12:06;;;;;;;3.28;2.60;;;18.40;56.40;;;;;;4893243;29;20160;-79
2021/09/22 03:14:32;;;;;;;3.17;2.58;;;18.40;56.40;;;;;;4877829;29;20278;-79
2021/09/22 03:16:58;;;;;;;3.42;2.58;;;18.30;56.30;;;;;;4877666;29;20180;-79
2021/09/22 03:19:24;;;;;;;3.58;2.70;;;18.30;56.20;;;;;;4893929;29;20171;-79
2021/09/22 03:21:52;;;;;;;4.38;2.65;;;18.40;56.20;;;;;;4893736;29;20192;-79
2021/09/22 03:24:18;;;;;;;3.55;2.50;;;18.40;56.00;;;;;;4893448;29;20191;-79
2021/09/22 03:26:44;;;;;;;3.20;2.40;;;18.40;56.20;;;;;;4893909;29;20204;-79
2021/09/22 03:29:11;;;;;;;3.55;2.30;;;18.40;56.10;;;;;;4894093;29;20164;-79
2021/09/22 03:31:36;;;;;;;3.30;2.75;;;18.40;56.00;;;;;;4892719;29;20175;-79
2021/09/22 03:34:02;;;;;;;3.90;2.50;;;18.40;56.10;;;;;;4893088;29;20192;-79
2021/09/22 03:36:28;;;;;;;3.05;2.50;;;18.40;56.10;;;;;;4892701;29;20667;-79
2021/09/22 03:38:53;;;;;;;2.72;2.45;;;18.40;56.20;;;;;;4876942;29;20223;-79
2021/09/22 03:41:20;;;;;;;3.08;2.47;;;18.30;56.00;;;;;;4892460;29;20172;-79
2021/09/22 03:43:47;;;;;;;3.30;2.47;;;18.40;56.00;;;;;;4894056;29;20152;-81
2021/09/22 03:46:14;;;;;;;3.20;2.60;;;18.40;56.10;;;;;;4861348;29;20161;-81
2021/09/22 03:48:40;;;;;;;3.30;2.70;;;18.40;56.20;;;;;;4876296;29;20171;-81
2021/09/22 03:51:06;;;;;;;3.38;2.90;;;18.40;56.20;;;;;;4876592;29;20251;-79
2021/09/22 03:53:32;;;;;;;2.70;2.30;;;18.40;56.00;;;;;;4861423;29;20176;-81
2021/09/22 03:55:58;;;;;;;3.13;2.53;;;18.40;56.10;;;;;;4861341;29;20172;-81
2021/09/22 03:58:24;;;;;;;3.45;2.65;;;18.30;56.20;;;;;;4891725;29;20167;-79
2021/09/22 04:00:52;;;;;;;3.92;2.80;;;18.40;56.00;;;;;;4876391;29;20251;-79
2021/09/22 04:03:19;;;;;;;3.40;2.40;;;18.40;56.00;;;;;;4861132;29;20256;-81
2021/09/22 04:05:46;;;;;;;2.80;2.50;;;18.40;56.00;;;;;;4861278;29;20200;-82
2021/09/22 04:08:12;;;;;;;3.10;2.72;;;18.40;55.90;;;;;;4893436;29;20172;-81
2021/09/22 04:10:39;;;;;;;3.78;2.60;;;18.40;56.10;;;;;;4892138;29;20238;-79
2021/09/22 04:13:07;;;;;;;3.50;2.50;;;18.40;55.80;;;;;;4893576;29;20168;-80
2021/09/22 04:15:33;;;;;;;4.05;2.67;;;18.40;56.00;;;;;;4892945;29;20191;-79
2021/09/22 04:17:58;;;;;;;3.55;2.70;;;18.40;55.70;;;;;;4893055;29;20275;-81
2021/09/22 04:20:25;;;;;;;3.08;2.55;;;18.40;55.90;;;;;;4893227;29;20191;-79
2021/09/22 04:22:50;;;;;;;3.33;2.50;;;18.40;55.70;;;;;;4892103;29;20156;-81
2021/09/22 04:25:17;;;;;;;3.20;2.30;;;18.40;55.90;;;;;;4892719;29;20216;-80
2021/09/22 04:27:43;;;;;;;3.08;2.42;;;18.40;56.10;;;;;;4892410;29;20200;-81
2021/09/22 04:30:09;;;;;;;3.13;2.60;;;18.40;56.00;;;;;;4893525;29;20169;-81
2021/09/22 04:32:38;;;;;;;3.67;2.65;;;18.40;55.90;;;;;;4892220;29;20195;-81
2021/09/22 04:35:05;;;;;;;3.95;3.05;;;18.40;55.80;;;;;;4891916;29;20224;-79
2021/09/22 04:37:36;;;;;;;3.50;2.88;;;18.40;56.00;;;;;;4892945;29;20179;-79
2021/09/22 04:40:29;;;;;;;3.80;2.55;;;18.40;55.80;;;;;;4892197;29;20227;-81
2021/09/22 04:42:57;;;;;;;3.33;2.75;;;18.40;55.90;;;;;;4893165;29;20228;-80
2021/09/22 04:45:26;;;;;;;3.45;2.63;;;18.40;55.90;;;;;;4891653;29;20160;-81
2021/09/22 04:47:52;;;;;;;3.55;2.80;;;18.40;56.00;;;;;;4892544;29;20172;-81
2021/09/22 04:50:20;;;;;;;3.97;2.58;;;18.40;56.00;;;;;;4891242;29;20184;-81
2021/09/22 04:52:46;;;;;;;3.58;2.25;;;18.40;55.90;;;;;;4890869;29;20168;-80
2021/09/22 04:55:12;;;;;;;3.10;2.40;;;18.40;55.80;;;;;;4875806;29;20211;-81
2021/09/22 04:57:39;;;;;;;3.30;2.38;;;18.30;55.80;;;;;;4892958;29;20600;-81
2021/09/22 05:00:07;;;;;;;3.47;2.65;;;18.40;55.90;;;;;;4892586;29;20159;-81
2021/09/22 05:02:36;;;;;;;3.08;2.40;;;18.40;55.80;;;;;;4891479;29;20224;-81
2021/09/22 05:05:08;;;;;;;3.53;2.63;;;18.40;55.80;;;;;;4876210;29;20302;-81
2021/09/22 05:07:34;;;;;;;4.30;2.78;;;18.40;55.80;;;;;;4875806;29;20221;-81
2021/09/22 05:10:00;;;;;;;3.47;2.60;;;18.40;55.70;;;;;;4891773;29;20172;-81
2021/09/22 05:12:26;;;;;;;3.63;2.72;;;18.40;56.00;;;;;;4880079;29;20223;-80
2021/09/22 05:14:51;;;;;;;3.25;2.55;;;18.40;55.90;;;;;;4879666;29;20188;-81
2021/09/22 05:17:17;;;;;;;3.65;2.60;;;18.30;55.80;;;;;;4863590;29;20172;-81
2021/09/22 05:19:44;;;;;;;4.43;2.65;;;18.40;56.20;;;;;;4879585;29;20167;-81
2021/09/22 05:22:15;;;;;;;3.60;2.72;;;18.30;56.00;;;;;;4879463;29;20164;-81
2021/09/22 05:24:42;;;;;;;3.65;2.58;;;18.40;55.80;;;;;;4880614;29;20234;-80
2021/09/22 05:27:10;;;;;;;3.05;2.40;;;18.40;56.00;;;;;;4879758;29;20262;-81
2021/09/22 05:29:36;;;;;;;3.00;2.20;;;18.40;55.80;;;;;;4879739;29;20161;-81
2021/09/22 05:32:04;;;;;;;4.07;2.47;;;18.30;55.80;;;;;;4863840;29;20261;-81
2021/09/22 05:34:34;;;;;;;3.78;2.80;;;18.40;56.10;;;;;;4893937;29;20184;-80
2021/09/22 05:37:02;;;;;;;3.13;2.55;;;18.40;55.60;;;;;;4895071;29;20521;-80
2021/09/22 05:39:28;;;;;;;3.50;2.60;;;18.40;56.00;;;;;;4894470;29;20585;-80
2021/09/22 05:41:56;;;;;;;3.20;2.50;;;18.40;56.00;;;;;;4894219;29;20156;-79
2021/09/22 05:44:22;;;;;;;3.38;2.50;;;18.40;56.00;;;;;;4878924;29;20179;-81
2021/09/22 05:46:48;;;;;;;3.40;2.42;;;18.40;55.80;;;;;;4864003;29;20176;-79
2021/09/22 05:49:14;;;;;;;3.45;2.83;;;18.40;56.10;;;;;;4878477;29;20172;-80
2021/09/22 05:51:40;;;;;;;3.15;2.50;;;18.30;56.00;;;;;;4878320;29;20168;-81
2021/09/22 05:54:06;;;;;;;3.80;2.63;;;18.40;56.00;;;;;;4878811;29;20302;-81
2021/09/22 05:56:31;;;;;;;3.45;2.40;;;18.30;56.00;;;;;;4878595;29;20168;-81
2021/09/22 05:58:57;;;;;;;3.83;2.80;;;18.40;56.00;;;;;;4879010;29;20171;-81
2021/09/22 06:01:23;;;;;;;3.00;2.45;;;18.30;55.60;;;;;;4863490;29;20165;-80
2021/09/22 06:03:50;;;;;;;3.00;2.40;;;18.40;55.90;;;;;;4862648;29;20212;-80
2021/09/22 06:06:20;;;;;;;3.25;2.50;;;18.40;55.90;;;;;;4877418;29;20169;-80
2021/09/22 06:08:46;;;;;;;3.13;2.33;;;18.40;55.90;;;;;;4870507;29;20173;-82
2021/09/22 06:11:12;;;;;;;3.25;2.60;;;18.40;55.90;;;;;;4875221;29;20168;-81
2021/09/22 06:13:40;;;;;;;3.20;2.53;;;18.40;56.20;;;;;;4874027;29;20259;-82
2021/09/22 06:16:06;;;;;;;3.00;2.33;;;18.40;55.80;;;;;;4828112;29;20607;-80
2021/09/22 06:18:35;;;;;;;3.45;2.90;;;18.40;56.00;;;;;;4812233;29;20598;-82
2021/09/22 06:24:50;;;;;;;3.65;2.55;;;18.40;56.00;;;;;;4767068;30;20208;-84
2021/09/22 06:27:34;;;;;;;3.05;2.38;;;18.40;56.30;;;;;;4752233;30;20192;-84
2021/09/22 06:32:39;;;;;;;2.90;2.40;;;18.30;56.00;;;;;;3048988;27;20239;-84
2021/09/22 06:35:22;;;;;;;3.28;2.65;;;18.40;56.20;;;;;;4851578;29;20254;-86
2021/09/22 06:37:52;;;;;;;3.30;2.63;;;18.40;56.00;;;;;;4800851;29;20680;-85
2021/09/22 06:40:20;;;;;;;2.70;2.40;;;18.40;56.20;;;;;;4804976;29;20190;-84
2021/09/22 06:43:01;;;;;;;4.32;2.53;;;18.40;56.20;;;;;;4804454;29;20196;-82
2021/09/22 06:45:35;;;;;;;3.00;2.58;;;18.30;56.10;;;;;;4802155;29;20186;-85
2021/09/22 06:48:01;;;;;;;5.22;2.85;;;18.40;56.10;;;;;;4787341;29;20232;-83
2021/09/22 06:50:29;;;;;;;4.35;2.60;;;18.50;56.00;;;;;;4805225;29;20190;-84
2021/09/22 06:52:57;;;;;;;4.30;2.65;;;18.40;55.70;;;;;;4801753;29;20166;-80
2021/09/22 06:55:22;;;;;;;5.85;2.95;;;18.50;55.80;;;;;;4801651;29;20222;-82
2021/09/22 06:57:48;;;;;;;4.32;3.05;;;18.50;55.70;;;;;;4798701;29;20202;-81
2021/09/22 07:00:14;;;;;;;3.83;2.80;;;18.50;55.80;;;;;;4830833;29;20296;-80
2021/09/22 07:02:40;;;;;;;2.72;2.30;;;18.50;55.60;;;;;;4813514;29;20162;-81
2021/09/22 07:05:07;;;;;;;3.78;2.63;;;18.60;56.10;;;;;;4833752;29;20677;-81
2021/09/22 07:07:33;;;;;;;3.83;2.30;;;18.60;55.90;;;;;;4870860;29;20224;-81
2021/09/22 07:09:58;;;;;;;3.35;2.58;;;18.60;55.80;;;;;;4865167;29;20219;-80
2021/09/22 07:12:24;;;;;;;5.22;2.42;;;18.60;55.90;;;;;;4846108;29;20160;-80
2021/09/22 07:14:50;;;;;;;3.17;2.53;;;18.60;55.80;;;;;;4844592;29;20221;-81
2021/09/22 07:17:17;;;;;;;4.03;2.33;;;18.70;55.80;;;;;;4847072;29;20169;-81
2021/09/22 07:19:43;;;;;;;4.65;2.40;;;18.70;55.70;;;;;;4861224;29;20195;-80
2021/09/22 07:22:09;;;;;;;3.42;2.47;;;18.70;55.50;;;;;;4861020;29;20179;-81
2021/09/22 07:24:35;;;;;;;3.60;2.58;;;18.60;55.50;;;;;;4845642;29;20566;-81
2021/09/22 07:27:01;;;;;;;2.60;2.20;;;18.60;55.60;;;;;;4860769;29;20217;-81
2021/09/22 07:29:27;;;;;;;4.05;2.58;;;18.60;55.50;;;;;;4860736;29;20165;-80
2021/09/22 07:31:53;;;;;;;3.03;2.50;;;18.60;55.40;;;;;;4860592;29;20811;-80
2021/09/22 07:34:19;;;;;;;2.70;2.28;;;18.60;55.40;;;;;;4866195;29;20310;-81
2021/09/22 07:36:44;;;;;;;3.42;2.70;;;18.70;55.40;;;;;;4900014;29;20164;-80
2021/09/22 07:39:10;;;;;;;3.17;2.33;;;18.70;55.50;;;;;;4899388;29;20160;-80
2021/09/22 07:41:36;;;;;;;4.55;2.60;;;18.70;55.80;;;;;;4883388;29;20311;-80
2021/09/22 07:44:02;;;;;;;5.78;2.50;;;18.70;55.70;;;;;;4883484;29;20572;-81
2021/09/22 07:46:28;;;;;;;3.13;2.40;;;18.60;55.70;;;;;;4900554;29;20618;-80
2021/09/22 07:48:54;;;;;;;12.38;2.83;;;18.70;55.60;;;;;;4899315;29;20231;-79
2021/09/22 07:51:19;;;;;;;5.47;2.88;;;18.70;55.80;;;;;;4867399;29;20187;-80
2021/09/22 07:53:45;;;;;;;9.82;2.92;;;18.80;55.70;;;;;;4899569;29;20191;-80
2021/09/22 07:56:11;;;;;;;5.70;2.55;;;18.80;55.40;;;;;;4896813;29;20223;-80
2021/09/22 07:58:36;;;;;;;10.32;2.80;;;18.80;55.40;;;;;;4899467;29;20160;-79
2021/09/22 08:01:02;;;;;;;5.75;2.50;;;18.80;55.50;;;;;;4899770;29;20160;-80
2021/09/22 08:03:28;;;;;;;8.32;2.63;;;18.80;55.40;;;;;;4899373;29;20204;-80
2021/09/22 08:05:54;;;;;;;6.68;2.58;;;18.80;55.40;;;;;;4866487;29;20583;-80
2021/09/22 08:08:19;;;;;;;7.97;2.85;;;18.80;55.60;;;;;;4898528;29;20163;-79
2021/09/22 08:10:46;;;;;;;7.15;2.97;;;18.80;55.60;;;;;;4899723;29;20159;-80
2021/09/22 08:13:12;;;;;;;10.63;2.90;;;18.90;55.70;;;;;;4901162;29;20160;-80
2021/09/22 08:15:38;;;;;;;10.93;3.00;;;19.00;55.60;;;;;;4899829;29;20202;-79
2021/09/22 08:18:04;;;;;;;9.35;3.22;;;18.90;55.60;;;;;;4899017;29;20167;-80
2021/09/22 08:20:30;;;;;;;8.32;2.65;;;18.90;55.70;;;;;;4900272;29;20156;-80
2021/09/22 08:22:55;;;;;;;13.75;3.13;;;18.90;55.60;;;;;;4897963;29;20531;-80
2021/09/22 08:25:21;;;;;;;8.05;3.22;;;18.90;55.70;;;;;;4897354;29;20215;-79
2021/09/22 08:27:48;;;;;;;8.32;3.30;;;18.90;55.70;;;;;;4849842;29;20171;-79
2021/09/22 08:30:14;;;;;;;7.32;2.97;;;19.00;55.60;;;;;;4880810;29;20172;-80
2021/09/22 08:32:40;;;;;;;12.95;2.92;;;18.90;55.30;;;;;;4898170;29;20762;-79
2021/09/22 08:35:07;;;;;;;10.13;2.88;;;18.90;55.90;;;;;;4898785;29;20246;-79
2021/09/22 08:37:33;;;;;;;11.85;2.80;;;18.90;55.70;;;;;;4882801;29;20174;-79
2021/09/22 08:39:59;;;;;;;11.30;2.70;;;18.90;55.90;;;;;;4898699;29;20231;-80
2021/09/22 08:42:24;;;;;;;16.92;3.00;;;18.90;55.80;;;;;;4898851;29;20160;-80
2021/09/22 08:44:51;;;;;;;9.43;2.85;;;19.00;55.90;;;;;;4899403;29;20168;-79
2021/09/22 08:47:17;;;;;;;6.57;2.65;;;19.00;56.00;;;;;;4882017;29;20170;-79
2021/09/22 08:49:43;;;;;;;12.65;2.63;;;19.00;55.60;;;;;;4881551;29;20215;-80
2021/09/22 08:52:09;;;;;;;7.65;2.67;;;19.00;55.90;;;;;;4881636;29;20361;-78
2021/09/22 08:54:35;;;;;;;8.52;3.25;;;19.00;56.00;;;;;;4896490;29;20203;-79
2021/09/22 08:57:01;;;;;;;7.78;2.88;;;19.00;56.90;;;;;;4896708;29;20156;-78
2021/09/22 08:59:28;;;;;;;9.35;3.08;;;19.00;56.30;;;;;;4897384;29;20212;-81
2021/09/22 09:02:10;;;;;;;8.52;3.20;;;19.00;56.00;;;;;;4902022;29;20187;-81
2021/09/22 09:04:36;;;;;;;10.15;3.10;;;19.00;56.30;;;;;;4886368;29;20318;-81
2021/09/22 09:07:06;;;;;;;9.85;3.03;;;19.10;55.90;;;;;;4889582;29;20265;-81
2021/09/22 09:09:33;;;;;;;11.35;2.92;;;19.10;56.00;;;;;;4885728;29;20171;-81
2021/09/22 09:11:59;;;;;;;11.73;2.92;;;19.10;56.00;;;;;;4884675;29;20159;-81
2021/09/22 09:14:29;;;;;;;9.13;3.00;;;19.10;55.80;;;;;;4899192;29;20198;-81
2021/09/22 09:16:59;;;;;;;7.10;3.00;;;19.10;55.90;;;;;;4899787;29;20183;-82
2021/09/22 09:19:25;;;;;;;10.38;3.25;;;19.00;55.70;;;;;;4884700;29;20171;-80
2021/09/22 09:21:54;;;;;;;8.13;2.92;;;19.10;55.80;;;;;;4896728;29;20160;-81
2021/09/22 09:24:38;;;;;;;9.00;2.92;;;19.10;56.00;;;;;;4864699;29;20236;-83
2021/09/22 09:27:32;;;;;;;5.85;3.03;;;19.10;55.90;;;;;;4880373;29;20167;-83
2021/09/22 09:29:58;;;;;;;12.45;3.15;;;19.10;55.70;;;;;;4884291;29;20170;-81
2021/09/22 09:32:25;;;;;;;7.55;3.28;;;19.10;55.80;;;;;;4898286;29;20294;-80
2021/09/22 09:35:09;;;;;;;10.57;3.28;;;19.10;55.80;;;;;;4883621;29;20187;-81
2021/09/22 09:37:39;;;;;;;10.00;3.08;;;19.20;55.70;;;;;;4885137;29;20615;-81
2021/09/22 09:40:30;;;;;;;12.13;3.17;;;19.10;56.10;;;;;;4867252;29;20170;-81
2021/09/22 09:43:00;;;;;;;7.15;3.28;;;19.10;55.90;;;;;;4882590;29;20643;-81
2021/09/22 09:45:30;;;;;;;9.23;2.88;;;19.10;55.80;;;;;;4897483;29;20176;-81
2021/09/22 09:48:17;;;;;;;11.20;2.90;;;19.10;56.00;;;;;;4863168;29;20164;-79
2021/09/22 09:50:47;;;;;;;8.35;2.92;;;19.10;56.00;;;;;;4877706;29;20165;-78
2021/09/22 09:53:34;;;;;;;7.70;3.25;;;19.10;55.70;;;;;;4878603;29;20194;-79
2021/09/22 09:56:00;;;;;;;8.75;2.80;;;19.10;55.80;;;;;;4879330;29;20632;-80
2021/09/22 09:58:39;;;;;;;12.85;2.90;;;19.10;55.80;;;;;;4900196;29;20175;-80
2021/09/22 10:01:04;;;;;;;6.97;2.50;;;19.10;55.70;;;;;;4883094;29;20251;-81
2021/09/22 10:03:30;;;;;;;7.05;2.70;;;19.10;55.60;;;;;;4884172;29;20254;-82
2021/09/22 10:05:58;;;;;;;9.27;2.42;;;19.10;55.60;;;;;;4900891;29;20164;-82
2021/09/22 10:08:25;;;;;;;5.45;3.00;;;19.20;55.30;;;;;;4884830;29;20167;-80
2021/09/22 10:10:51;;;;;;;10.25;3.15;;;19.20;55.50;;;;;;4884388;29;20164;-80
2021/09/22 10:13:18;;;;;;;5.18;2.85;;;19.20;55.70;;;;;;4901268;29;20164;-82
2021/09/22 10:15:44;;;;;;;4.50;2.63;;;19.10;55.50;;;;;;4884008;29;20327;-82
2021/09/22 10:18:11;;;;;;;11.65;3.15;;;19.10;55.60;;;;;;4885311;29;20180;-82
2021/09/22 10:20:37;;;;;;;9.15;3.05;;;19.10;55.60;;;;;;4869427;29;20266;-81
2021/09/22 10:23:04;;;;;;;7.60;2.83;;;19.00;55.70;;;;;;4884242;29;20246;-80
2021/09/22 10:25:30;;;;;;;10.05;3.10;;;19.10;55.70;;;;;;4900608;29;20167;-82
2021/09/22 10:27:55;;;;;;;6.80;2.80;;;19.10;55.40;;;;;;4900614;29;20155;-81
2021/09/22 10:30:33;;;;;;;6.80;2.42;;;19.10;55.70;;;;;;4853387;29;20170;-81
2021/09/22 10:32:59;;;;;;;7.68;2.60;;;19.00;55.50;;;;;;4887095;29;20262;-80
2021/09/22 10:35:37;;;;;;;10.18;2.50;;;19.00;55.30;;;;;;4865126;29;20234;-81
2021/09/22 10:38:42;;;;;;;5.07;2.58;;;19.00;55.50;;;;;;4866455;29;20507;-80
2021/09/22 10:41:09;;;;;;;6.45;2.42;;;19.00;55.60;;;;;;4868248;29;20164;-81
2021/09/22 10:43:40;;;;;;;5.88;2.50;;;19.00;55.50;;;;;;4881779;29;20240;-80
2021/09/22 10:46:13;;;;;;;6.47;2.80;;;19.00;55.40;;;;;;4865821;29;20156;-80
2021/09/22 10:48:56;;;;;;;9.77;2.88;;;19.00;55.50;;;;;;4882044;29;20192;-81
2021/09/22 10:51:37;;;;;;;8.35;2.92;;;19.00;55.30;;;;;;4867594;29;20243;-80
2021/09/22 10:54:13;;;;;;;6.70;2.90;;;19.00;55.30;;;;;;4881368;29;20287;-80
2021/09/22 10:56:53;;;;;;;3.97;2.58;;;19.00;55.50;;;;;;4866707;29;20189;-80
2021/09/22 10:59:35;;;;;;;4.43;2.55;;;19.00;55.40;;;;;;4837432;29;20182;-80
2021/09/22 11:02:00;;;;;;;5.13;2.40;;;19.00;55.70;;;;;;4883823;29;20225;-80
2021/09/22 11:04:26;;;;;;;6.50;3.25;;;19.00;55.60;;;;;;4853925;29;20577;-82
2021/09/22 11:06:54;;;;;;;5.82;2.53;;;19.00;55.70;;;;;;4852878;29;20301;-80
2021/09/22 11:09:29;;;;;;;8.05;3.00;;;19.00;55.60;;;;;;4849585;29;20164;-79
2021/09/22 11:12:05;;;;;;;6.85;2.92;;;19.00;55.40;;;;;;4849788;29;20174;-79
2021/09/22 11:14:41;;;;;;;6.35;2.42;;;19.00;55.60;;;;;;4881268;29;20592;-78
2021/09/22 11:17:26;;;;;;;6.30;2.97;;;19.00;55.60;;;;;;4865345;29;20168;-78
2021/09/22 11:19:58;;;;;;;7.78;3.00;;;19.00;55.70;;;;;;4852835;29;20168;-79
2021/09/22 11:22:28;;;;;;;6.75;2.83;;;19.00;55.50;;;;;;4880258;29;20152;-78
2021/09/22 11:24:58;;;;;;;7.80;2.85;;;19.00;55.50;;;;;;4864717;29;20191;-79
2021/09/22 11:27:25;;;;;;;4.53;3.00;;;19.00;55.50;;;;;;4864961;29;20239;-78
2021/09/22 11:29:53;;;;;;;6.35;2.95;;;19.00;55.70;;;;;;4881529;29;20225;-79
2021/09/22 11:32:27;;;;;;;5.55;3.00;;;19.00;55.70;;;;;;4864147;29;20424;-79
2021/09/22 11:34:54;;;;;;;5.60;2.92;;;19.00;55.60;;;;;;4880291;29;20203;-79
2021/09/22 11:37:20;;;;;;;4.20;2.70;;;19.00;55.40;;;;;;4864393;29;20191;-79
2021/09/22 11:39:46;;;;;;;6.10;2.83;;;18.90;55.30;;;;;;4864236;29;20615;-79
2021/09/22 11:42:11;;;;;;;7.50;3.20;;;19.00;55.50;;;;;;4880685;29;20163;-78
2021/09/22 11:44:40;;;;;;;6.72;2.90;;;19.00;55.60;;;;;;4864667;29;20180;-79
2021/09/22 11:47:07;;;;;;;5.28;3.20;;;18.90;55.40;;;;;;4863879;29;20184;-79
2021/09/22 11:49:41;;;;;;;7.72;3.20;;;18.90;55.40;;;;;;4881840;29;20199;-77
2021/09/22 11:52:14;;;;;;;4.78;2.80;;;18.90;55.50;;;;;;4883898;29;20172;-79
2021/09/22 11:54:42;;;;;;;7.43;3.13;;;18.90;55.30;;;;;;4867696;29;20563;-78
2021/09/22 11:57:11;;;;;;;6.43;3.03;;;18.90;55.10;;;;;;4881603;29;20545;-80
2021/09/22 11:59:37;;;;;;;8.02;2.80;;;18.90;55.30;;;;;;4883370;29;20160;-78
2021/09/22 12:02:03;;;;;;;7.03;2.90;;;18.90;55.10;;;;;;4834446;29;20547;-79
2021/09/22 12:04:34;;;;;;;4.95;2.85;;;18.90;55.10;;;;;;4881221;29;20161;-79
2021/09/22 12:07:01;;;;;;;7.35;2.95;;;18.90;55.10;;;;;;4849614;29;20160;-77
2021/09/22 12:09:36;;;;;;;4.47;2.60;;;18.90;55.00;;;;;;4863972;29;20159;-80
2021/09/22 12:12:18;;;;;;;4.82;2.72;;;18.90;55.00;;;;;;4880789;29;20168;-81
2021/09/22 12:14:47;;;;;;;6.43;3.00;;;18.90;54.80;;;;;;4881334;29;20199;-81
2021/09/22 12:17:13;;;;;;;4.97;3.00;;;18.90;54.90;;;;;;4864208;29;20217;-80
2021/09/22 12:19:39;;;;;;;5.72;3.15;;;18.90;54.90;;;;;;4849189;29;20162;-81
2021/09/22 12:22:22;;;;;;;5.53;3.00;;;18.90;54.70;;;;;;4852252;29;20160;-81
2021/09/22 12:25:02;;;;;;;6.60;2.97;;;18.90;54.70;;;;;;4854555;29;20168;-83
2021/09/22 12:27:39;;;;;;;5.07;3.17;;;18.90;55.00;;;;;;4811473;29;20190;-81
2021/09/22 12:30:08;;;;;;;6.25;3.08;;;18.90;54.50;;;;;;4805883;29;20193;-81
2021/09/22 12:32:54;;;;;;;5.45;3.13;;;18.90;54.60;;;;;;4808583;29;20229;-82
2021/09/22 12:35:21;;;;;;;6.72;3.00;;;18.90;54.80;;;;;;4828173;29;20239;-81
2021/09/22 12:37:52;;;;;;;4.70;2.85;;;18.90;55.10;;;;;;4843280;29;20273;-84
2021/09/22 12:40:25;;;;;;;7.07;2.70;;;19.00;54.50;;;;;;4827329;29;20185;-84
2021/09/22 12:42:50;;;;;;;4.43;2.80;;;18.90;54.20;;;;;;4827676;29;20691;-81
2021/09/22 12:45:23;;;;;;;4.80;3.10;;;19.00;54.20;;;;;;4830883;29;20185;-85
2021/09/22 12:47:56;;;;;;;5.20;3.13;;;18.90;54.50;;;;;;4796254;29;20350;-82
2021/09/22 12:50:24;;;;;;;5.00;2.92;;;19.00;54.50;;;;;;4829360;29;20168;-82
2021/09/22 12:52:51;;;;;;;6.65;3.10;;;18.90;54.20;;;;;;4815601;29;20608;-82
2021/09/22 12:55:23;;;;;;;3.47;2.92;;;19.00;54.40;;;;;;4813669;29;20285;-80
2021/09/22 12:57:54;;;;;;;6.78;2.70;;;19.00;54.10;;;;;;4831146;29;20176;-80